Terminal Aerodrome Forecast
Issued by NWS

Home | Current Version | Previous Version | Text Only | Print | Product List | Glossary On
Versions: 1 2 3 4 5 6 7 8 9 10 11 12 13 14 15 16 17 18 19 20 21 22
000
FTUS43 KDVN 251200 AAA
TAFBRL
TAF AMD
KBRL 251233Z 2513/2612 28004KT 1/4SM FG VV001
     FM251400 29007KT 4SM BR SCT004
     FM251500 31008KT P6SM SKC
     FM260000 29005KT P6SM SKC=

USA.gov is the U.S. government's official web portal to all federal, state and local government web resources and services.